METAR Data
IDs: Format: Raw Decoded Include TAF

Data at: 1435 UTC 10 Aug 2022

METAR for:KDUH (Toledo/Suburban Arpt, MI, US)
Text:KDUH 101415Z AUTO 00000KT 10SM SCT041 OVC048 23/19 A3015 RMK AO2 T02290187
Temperature: 22.9°C ( 73°F)
Dewpoint: 18.7°C ( 66°F) [RH = 77%]
Pressure (altimeter):30.15 inches Hg (1021.1 mb)
Winds:calm
Visibility:10 or more sm (16+ km)
Ceiling:4800 feet AGL
Clouds: scattered clouds at 4100 feet AGL, overcast cloud deck at 4800 feet AGL
QC Flag:automated observation with no human augmentation